Time;durP1;ratioP1;P1;durP2;ratioP2;P2;SDS_P1;SDS_P2;PMS_P1;PMS_P2;Temp;Humidity;BMP_temperature;BMP_pressure;BME280_temperature;BME280_humidity;BME280_pressure;Samples;Min_cycle;Max_cycle;Signal;HPM_P1;HPM_P2
2022/07/28 00:01:59;;;;;;;14.70;5.83;;;;;;;;;;5069000;28;20070;-58
2022/07/28 00:04:25;;;;;;;13.03;6.47;;;;;;;;;;5069434;28;20170;-57
2022/07/28 00:06:51;;;;;;;11.27;6.90;;;;;;;;;;5068882;28;20127;-58
2022/07/28 00:09:17;;;;;;;11.10;7.67;;;;;;;;;;5069015;28;20040;-58
2022/07/28 00:11:44;;;;;;;11.53;7.47;;;;;;;;;;5068769;28;20041;-58
2022/07/28 00:14:10;;;;;;;13.20;7.37;;;;;;;;;;5069019;28;20048;-58
2022/07/28 00:16:36;;;;;;;12.40;6.13;;;;;;;;;;5067735;28;20504;-58
2022/07/28 00:19:02;;;;;;;11.27;5.40;;;;;;;;;;5068628;28;20055;-58
2022/07/28 00:21:28;;;;;;;14.70;6.47;;;;;;;;;;5068285;28;20040;-57
2022/07/28 00:23:54;;;;;;;10.60;4.77;;;;;;;;;;5068860;28;20044;-57
2022/07/28 00:26:20;;;;;;;10.00;4.60;;;;;;;;;;5068519;28;20056;-58
2022/07/28 00:28:47;;;;;;;7.23;4.33;;;;;;;;;;5068586;28;20059;-57
2022/07/28 00:31:13;;;;;;;8.50;4.00;;;;;;;;;;5068752;28;20053;-58
2022/07/28 00:33:39;;;;;;;10.13;4.40;;;;;;;;;;5067996;28;20114;-58
2022/07/28 00:36:06;;;;;;;8.60;4.80;;;;;;;;;;5068470;28;20483;-58
2022/07/28 00:38:32;;;;;;;8.47;4.57;;;;;;;;;;5068215;28;20131;-57
2022/07/28 00:41:10;;;;;;;8.63;5.70;;;;;;;;;;5068255;28;20359;-58
2022/07/28 00:43:36;;;;;;;10.00;5.50;;;;;;;;;;5068321;28;20079;-58
2022/07/28 00:46:02;;;;;;;9.20;5.73;;;;;;;;;;5068514;28;20062;-58
2022/07/28 00:48:28;;;;;;;10.97;6.20;;;;;;;;;;5068216;28;20059;-58
2022/07/28 00:50:55;;;;;;;11.40;6.20;;;;;;;;;;5068385;28;20098;-58
2022/07/28 00:53:21;;;;;;;11.10;5.73;;;;;;;;;;5068391;28;20047;-58
2022/07/28 00:55:47;;;;;;;7.90;5.00;;;;;;;;;;5068311;28;20387;-58
2022/07/28 00:58:13;;;;;;;13.47;5.73;;;;;;;;;;5068392;28;20079;-58
2022/07/28 01:00:39;;;;;;;11.87;5.70;;;;;;;;;;5068176;28;20414;-57
2022/07/28 01:03:05;;;;;;;12.07;5.80;;;;;;;;;;5071027;28;20051;-58
2022/07/28 01:05:45;;;;;;;11.70;6.07;;;;;;;;;;5073043;28;20136;-57
2022/07/28 01:08:20;;;;;;;10.93;5.77;;;;;;;;;;5072339;28;20044;-58
2022/07/28 01:11:01;;;;;;;10.07;6.17;;;;;;;;;;5072427;28;20079;-58
2022/07/28 01:13:43;;;;;;;8.63;5.53;;;;;;;;;;5071855;28;20193;-58
2022/07/28 01:16:09;;;;;;;9.30;4.90;;;;;;;;;;5071712;28;20048;-57
2022/07/28 01:18:53;;;;;;;12.83;4.80;;;;;;;;;;5071790;28;20070;-58
2022/07/28 01:21:28;;;;;;;11.80;5.10;;;;;;;;;;5072097;28;20058;-58
2022/07/28 01:23:54;;;;;;;9.47;5.07;;;;;;;;;;5071842;28;20490;-57
2022/07/28 01:26:26;;;;;;;9.20;4.93;;;;;;;;;;5071398;28;20055;-57
2022/07/28 01:29:13;;;;;;;11.27;6.27;;;;;;;;;;5071998;28;20052;-57
2022/07/28 01:31:41;;;;;;;12.77;5.77;;;;;;;;;;5067504;28;20102;-58
2022/07/28 01:34:12;;;;;;;10.17;5.73;;;;;;;;;;5071816;28;20048;-58
2022/07/28 01:36:41;;;;;;;9.30;5.70;;;;;;;;;;5071163;28;20044;-58
2022/07/28 01:39:08;;;;;;;9.07;5.60;;;;;;;;;;5071434;28;20102;-58
2022/07/28 01:41:35;;;;;;;14.67;4.90;;;;;;;;;;5071696;28;20037;-58
2022/07/28 01:44:04;;;;;;;7.23;5.17;;;;;;;;;;5071248;28;20048;-58
2022/07/28 01:46:31;;;;;;;10.57;6.67;;;;;;;;;;5071133;28;20044;-57
2022/07/28 01:48:57;;;;;;;11.23;6.27;;;;;;;;;;5071747;28;20055;-57
2022/07/28 01:51:25;;;;;;;13.27;6.40;;;;;;;;;;5071661;28;20047;-57
2022/07/28 01:53:51;;;;;;;12.83;6.57;;;;;;;;;;5071241;28;20082;-58
2022/07/28 01:56:18;;;;;;;10.67;6.60;;;;;;;;;;5071289;28;20428;-58
2022/07/28 01:58:45;;;;;;;11.93;7.00;;;;;;;;;;5071163;28;20553;-58
2022/07/28 02:01:12;;;;;;;9.57;6.37;;;;;;;;;;5071481;28;20040;-57
2022/07/28 02:03:39;;;;;;;11.53;5.87;;;;;;;;;;5070938;28;20109;-58
2022/07/28 02:06:05;;;;;;;10.40;5.87;;;;;;;;;;5071671;28;20040;-58
2022/07/28 02:08:33;;;;;;;8.20;4.70;;;;;;;;;;5071332;28;20048;-58
2022/07/28 02:13:46;;;;;;;9.97;5.70;;;;;;;;;;5070433;28;20040;-58
2022/07/28 02:16:14;;;;;;;11.33;6.40;;;;;;;;;;5070963;28;20074;-58
2022/07/28 02:18:41;;;;;;;13.00;6.23;;;;;;;;;;5070623;28;20048;-58
2022/07/28 02:21:07;;;;;;;12.87;6.53;;;;;;;;;;5070697;28;20110;-58
2022/07/28 02:23:34;;;;;;;13.03;6.10;;;;;;;;;;5070824;28;20449;-58
2022/07/28 02:26:02;;;;;;;11.90;6.50;;;;;;;;;;5071090;28;20414;-58
2022/07/28 02:28:28;;;;;;;10.37;5.60;;;;;;;;;;5070691;28;20040;-58
2022/07/28 02:30:57;;;;;;;10.13;5.63;;;;;;;;;;5069747;28;20145;-58
2022/07/28 02:33:25;;;;;;;11.10;6.17;;;;;;;;;;5070489;28;20129;-58
2022/07/28 02:35:54;;;;;;;10.67;6.77;;;;;;;;;;5070259;28;20080;-58
2022/07/28 02:38:40;;;;;;;16.27;6.10;;;;;;;;;;5070566;28;20057;-58
2022/07/28 02:41:23;;;;;;;7.93;5.17;;;;;;;;;;5070374;28;20055;-58
2022/07/28 02:43:50;;;;;;;9.50;5.35;;;;;;;;;;5070104;28;20118;-59
2022/07/28 02:46:18;;;;;;;8.87;5.13;;;;;;;;;;5070513;28;20132;-58
2022/07/28 02:48:46;;;;;;;12.43;5.87;;;;;;;;;;5069847;28;20051;-58
2022/07/28 02:51:13;;;;;;;10.20;6.07;;;;;;;;;;5069149;28;20087;-58
2022/07/28 02:53:39;;;;;;;12.30;5.87;;;;;;;;;;5070015;28;20483;-58
2022/07/28 02:56:06;;;;;;;11.80;5.90;;;;;;;;;;5070247;28;20036;-58
2022/07/28 02:58:33;;;;;;;11.37;6.87;;;;;;;;;;5070139;28;20131;-58
2022/07/28 03:00:59;;;;;;;16.97;7.90;;;;;;;;;;5069975;28;20072;-58
2022/07/28 03:03:26;;;;;;;15.57;7.60;;;;;;;;;;5069992;28;20094;-58
2022/07/28 03:05:52;;;;;;;17.23;7.20;;;;;;;;;;5070158;28;20445;-58
2022/07/28 03:08:18;;;;;;;13.77;7.43;;;;;;;;;;5069834;28;20041;-58
2022/07/28 03:10:44;;;;;;;18.30;8.20;;;;;;;;;;5068676;28;20037;-58
2022/07/28 03:13:11;;;;;;;15.47;7.63;;;;;;;;;;5069568;28;20037;-58
2022/07/28 03:15:39;;;;;;;14.27;5.93;;;;;;;;;;5069627;28;20041;-58
2022/07/28 03:18:05;;;;;;;20.20;9.13;;;;;;;;;;5069420;28;20521;-59
2022/07/28 03:20:31;;;;;;;15.13;7.17;;;;;;;;;;5069573;28;20041;-58
2022/07/28 03:22:58;;;;;;;15.50;7.57;;;;;;;;;;5069667;28;20536;-58
2022/07/28 03:26:02;;;;;;;14.67;7.53;;;;;;;;;;5068702;28;20094;-58
2022/07/28 03:28:29;;;;;;;18.90;10.03;;;;;;;;;;5046858;28;20079;-58
2022/07/28 03:30:57;;;;;;;15.97;7.63;;;;;;;;;;5047075;28;20040;-58
2022/07/28 03:33:24;;;;;;;10.93;6.40;;;;;;;;;;5057753;28;20052;-58
2022/07/28 03:35:51;;;;;;;10.50;6.30;;;;;;;;;;5069378;28;20040;-58
2022/07/28 03:38:21;;;;;;;14.00;7.13;;;;;;;;;;5069254;28;20051;-58
2022/07/28 03:40:48;;;;;;;13.33;6.97;;;;;;;;;;5068932;28;20052;-58
2022/07/28 03:43:16;;;;;;;14.90;7.70;;;;;;;;;;5069105;28;20491;-58
2022/07/28 03:45:42;;;;;;;15.43;7.53;;;;;;;;;;5069175;28;20565;-58
2022/07/28 03:48:08;;;;;;;14.03;7.07;;;;;;;;;;5069045;28;20163;-58
2022/07/28 03:50:34;;;;;;;15.83;7.77;;;;;;;;;;5068741;28;20052;-58
2022/07/28 03:53:04;;;;;;;16.77;8.37;;;;;;;;;;5069170;28;20048;-58
2022/07/28 03:55:30;;;;;;;14.63;8.53;;;;;;;;;;5068963;28;20140;-58
2022/07/28 03:57:56;;;;;;;19.30;8.57;;;;;;;;;;5067636;28;20063;-58
2022/07/28 04:00:24;;;;;;;14.83;7.53;;;;;;;;;;5069056;28;20045;-59
2022/07/28 04:02:50;;;;;;;15.97;8.47;;;;;;;;;;5068653;28;20095;-58
2022/07/28 04:05:17;;;;;;;17.33;7.70;;;;;;;;;;5068913;28;20040;-58
2022/07/28 04:07:44;;;;;;;19.43;8.97;;;;;;;;;;5068669;28;20494;-58
2022/07/28 04:10:12;;;;;;;19.70;8.63;;;;;;;;;;5067527;28;20057;-58
2022/07/28 04:12:46;;;;;;;20.93;8.20;;;;;;;;;;5068430;28;20517;-58
2022/07/28 04:15:13;;;;;;;15.43;8.23;;;;;;;;;;5068795;28;20054;-58
2022/07/28 04:17:39;;;;;;;13.07;7.33;;;;;;;;;;5068529;28;20048;-58
2022/07/28 04:20:06;;;;;;;17.13;7.90;;;;;;;;;;5068261;28;20048;-58
2022/07/28 04:22:32;;;;;;;11.40;7.63;;;;;;;;;;5068137;28;20040;-59
2022/07/28 04:24:58;;;;;;;14.27;7.20;;;;;;;;;;5068293;28;20045;-58
2022/07/28 04:27:24;;;;;;;12.63;7.23;;;;;;;;;;5068501;28;20063;-58
2022/07/28 04:29:50;;;;;;;15.10;6.97;;;;;;;;;;5068056;28;20059;-59
2022/07/28 04:32:16;;;;;;;17.43;8.00;;;;;;;;;;5068037;28;20044;-58
2022/07/28 04:34:42;;;;;;;16.83;7.80;;;;;;;;;;5068376;28;20402;-58
2022/07/28 04:37:08;;;;;;;14.80;7.50;;;;;;;;;;5068062;28;20155;-58
2022/07/28 04:39:34;;;;;;;18.90;8.30;;;;;;;;;;5068220;28;20049;-58
2022/07/28 04:42:00;;;;;;;12.17;7.10;;;;;;;;;;5068291;28;20055;-58
2022/07/28 04:44:27;;;;;;;20.40;7.67;;;;;;;;;;5067977;28;20059;-58
2022/07/28 04:46:53;;;;;;;13.17;7.47;;;;;;;;;;5068014;28;20052;-58
2022/07/28 04:49:19;;;;;;;18.53;7.30;;;;;;;;;;5068139;28;20041;-58
2022/07/28 04:51:49;;;;;;;15.30;7.07;;;;;;;;;;5068297;28;20044;-58
2022/07/28 04:54:15;;;;;;;14.00;7.87;;;;;;;;;;5068047;28;20045;-58
2022/07/28 04:56:41;;;;;;;15.33;6.60;;;;;;;;;;5067928;28;20047;-59
2022/07/28 04:59:07;;;;;;;18.67;9.00;;;;;;;;;;5068088;28;20052;-58
2022/07/28 05:01:37;;;;;;;16.90;7.30;;;;;;;;;;5067729;28;20482;-58
2022/07/28 05:04:04;;;;;;;13.73;7.17;;;;;;;;;;5068175;28;20066;-59
2022/07/28 05:06:30;;;;;;;15.40;8.50;;;;;;;;;;5068094;28;20796;-58
2022/07/28 05:08:56;;;;;;;16.03;7.10;;;;;;;;;;5068043;28;20082;-58
2022/07/28 05:11:22;;;;;;;14.90;7.97;;;;;;;;;;5068154;28;20052;-59
2022/07/28 05:13:48;;;;;;;13.10;6.50;;;;;;;;;;5067917;28;20045;-58
2022/07/28 05:16:14;;;;;;;16.33;8.17;;;;;;;;;;5067850;28;20456;-58
2022/07/28 05:18:40;;;;;;;14.93;7.97;;;;;;;;;;5067660;28;20049;-59
2022/07/28 05:21:06;;;;;;;15.10;7.37;;;;;;;;;;5067665;28;20040;-59
2022/07/28 05:23:32;;;;;;;19.90;7.73;;;;;;;;;;5067862;28;20098;-59
2022/07/28 05:25:58;;;;;;;15.07;7.50;;;;;;;;;;5067620;28;20047;-59
2022/07/28 05:28:25;;;;;;;20.03;9.00;;;;;;;;;;5067889;28;20743;-59
2022/07/28 05:30:51;;;;;;;17.00;8.10;;;;;;;;;;5067639;28;20048;-58
2022/07/28 05:33:17;;;;;;;15.27;8.83;;;;;;;;;;5067926;28;20059;-59
2022/07/28 05:35:44;;;;;;;17.27;8.30;;;;;;;;;;5067553;28;20565;-58
2022/07/28 05:38:11;;;;;;;13.37;7.47;;;;;;;;;;5066499;28;20059;-58
2022/07/28 05:40:37;;;;;;;19.87;9.87;;;;;;;;;;5067689;28;20470;-59
2022/07/28 05:43:03;;;;;;;12.43;7.23;;;;;;;;;;5067516;28;20045;-59
2022/07/28 05:45:29;;;;;;;12.13;7.57;;;;;;;;;;5067330;28;20049;-59
2022/07/28 05:47:55;;;;;;;15.53;8.30;;;;;;;;;;5069087;28;20044;-59
2022/07/28 05:50:24;;;;;;;14.17;7.80;;;;;;;;;;5071000;28;20044;-58
2022/07/28 05:52:50;;;;;;;10.30;7.07;;;;;;;;;;5070216;28;20431;-59
2022/07/28 05:55:16;;;;;;;14.70;8.63;;;;;;;;;;5059790;28;20045;-59
2022/07/28 05:57:43;;;;;;;10.23;6.47;;;;;;;;;;5059352;28;20165;-59
2022/07/28 06:00:13;;;;;;;10.50;5.07;;;;;;;;;;5060834;28;20044;-59
2022/07/28 06:02:40;;;;;;;8.33;5.40;;;;;;;;;;5058321;28;20064;-59
2022/07/28 06:05:06;;;;;;;10.27;5.73;;;;;;;;;;5058642;28;20045;-59
2022/07/28 06:07:33;;;;;;;9.63;5.30;;;;;;;;;;5060673;28;20052;-58
2022/07/28 06:09:59;;;;;;;11.83;5.97;;;;;;;;;;5060401;28;20048;-59
2022/07/28 06:12:25;;;;;;;11.67;5.17;;;;;;;;;;5070459;28;20469;-58
2022/07/28 06:14:51;;;;;;;9.33;4.27;;;;;;;;;;5070936;28;20040;-58
2022/07/28 06:17:17;;;;;;;12.20;5.47;;;;;;;;;;5070967;28;20521;-58
2022/07/28 06:19:43;;;;;;;10.87;4.90;;;;;;;;;;5067666;28;20078;-59
2022/07/28 06:22:09;;;;;;;9.00;4.27;;;;;;;;;;5059880;28;20486;-59
2022/07/28 06:24:36;;;;;;;8.93;5.27;;;;;;;;;;5057614;28;20128;-58
2022/07/28 06:27:02;;;;;;;9.57;4.40;;;;;;;;;;5050376;28;20073;-59
2022/07/28 06:29:29;;;;;;;8.53;4.23;;;;;;;;;;5057731;28;20037;-58
2022/07/28 06:31:55;;;;;;;8.23;4.50;;;;;;;;;;5059027;28;20501;-59
2022/07/28 06:34:21;;;;;;;7.97;3.90;;;;;;;;;;5059667;28;20171;-59
2022/07/28 06:36:47;;;;;;;8.67;4.30;;;;;;;;;;5057880;28;20190;-59
2022/07/28 06:39:13;;;;;;;11.07;3.83;;;;;;;;;;5059873;28;20074;-59
2022/07/28 06:41:43;;;;;;;7.17;3.17;;;;;;;;;;5059046;28;20136;-59
2022/07/28 06:44:10;;;;;;;8.43;3.43;;;;;;;;;;5057613;28;20124;-59
2022/07/28 06:46:36;;;;;;;8.50;2.80;;;;;;;;;;5059376;28;20068;-59
2022/07/28 06:49:02;;;;;;;10.43;2.60;;;;;;;;;;5059564;28;20037;-58
2022/07/28 06:51:28;;;;;;;14.13;3.40;;;;;;;;;;5059303;28;20044;-58
2022/07/28 06:53:55;;;;;;;10.23;2.00;;;;;;;;;;5058058;28;20052;-58
2022/07/28 06:56:21;;;;;;;5.90;1.40;;;;;;;;;;5057233;28;20052;-59
2022/07/28 06:58:47;;;;;;;8.43;1.30;;;;;;;;;;5059014;28;20059;-58
2022/07/28 07:01:14;;;;;;;5.43;1.17;;;;;;;;;;5058328;28;20040;-59
2022/07/28 07:03:41;;;;;;;6.10;1.20;;;;;;;;;;5058719;28;20079;-58
2022/07/28 07:06:07;;;;;;;6.83;1.50;;;;;;;;;;5057724;28;20080;-58
2022/07/28 07:08:33;;;;;;;3.67;1.37;;;;;;;;;;5059168;28;20051;-58
2022/07/28 07:10:59;;;;;;;6.77;1.40;;;;;;;;;;5059906;28;20091;-58
2022/07/28 07:13:25;;;;;;;6.20;1.13;;;;;;;;;;5057333;28;20456;-58
2022/07/28 07:15:51;;;;;;;4.80;1.13;;;;;;;;;;5059512;28;20066;-59
2022/07/28 07:18:17;;;;;;;6.07;1.10;;;;;;;;;;5057959;28;20048;-59
2022/07/28 07:20:43;;;;;;;7.17;2.03;;;;;;;;;;5057276;28;20048;-60
2022/07/28 07:23:09;;;;;;;6.93;1.30;;;;;;;;;;5059108;28;20036;-60
2022/07/28 07:25:35;;;;;;;4.43;0.90;;;;;;;;;;5057942;28;20491;-60
2022/07/28 07:28:01;;;;;;;6.47;1.07;;;;;;;;;;5057630;28;20049;-59
2022/07/28 07:30:28;;;;;;;5.23;1.47;;;;;;;;;;5058939;28;20468;-60
2022/07/28 07:32:54;;;;;;;3.90;1.00;;;;;;;;;;5056041;28;20099;-60
2022/07/28 07:35:20;;;;;;;4.97;1.27;;;;;;;;;;5059463;28;20072;-60
2022/07/28 07:37:46;;;;;;;6.70;1.20;;;;;;;;;;5059266;28;20091;-59
2022/07/28 07:40:12;;;;;;;8.17;2.17;;;;;;;;;;5053557;28;20418;-59
2022/07/28 07:42:38;;;;;;;5.00;1.23;;;;;;;;;;5049057;28;20045;-59
2022/07/28 07:45:06;;;;;;;6.27;1.20;;;;;;;;;;5049289;28;20057;-59
2022/07/28 07:47:32;;;;;;;6.00;1.10;;;;;;;;;;5049184;28;20052;-59
2022/07/28 07:49:59;;;;;;;9.03;1.67;;;;;;;;;;5048709;28;20036;-59
2022/07/28 07:52:25;;;;;;;4.83;0.90;;;;;;;;;;5048721;28;20496;-59
2022/07/28 07:54:51;;;;;;;4.60;0.90;;;;;;;;;;5048949;28;20102;-59
2022/07/28 07:57:17;;;;;;;4.53;1.00;;;;;;;;;;5049145;28;20041;-59
2022/07/28 07:59:43;;;;;;;4.93;0.87;;;;;;;;;;5048742;28;20683;-59
2022/07/28 08:02:09;;;;;;;6.30;0.90;;;;;;;;;;5058355;28;20040;-60
2022/07/28 08:04:35;;;;;;;4.90;1.20;;;;;;;;;;5068311;28;20040;-60
2022/07/28 08:07:01;;;;;;;3.43;1.00;;;;;;;;;;5069257;28;20047;-59
2022/07/28 08:09:27;;;;;;;4.33;0.93;;;;;;;;;;5068906;28;20036;-59
2022/07/28 08:11:53;;;;;;;4.13;1.00;;;;;;;;;;5068728;28;20513;-59
2022/07/28 08:14:19;;;;;;;3.30;0.97;;;;;;;;;;5068816;28;20048;-59
2022/07/28 08:16:45;;;;;;;3.10;0.90;;;;;;;;;;5068770;28;20076;-59
2022/07/28 08:19:11;;;;;;;3.23;0.77;;;;;;;;;;5068818;28;20135;-59
2022/07/28 08:21:37;;;;;;;2.07;0.57;;;;;;;;;;5068864;28;20055;-59
2022/07/28 08:24:03;;;;;;;2.67;1.00;;;;;;;;;;5068533;28;20045;-59
2022/07/28 08:26:30;;;;;;;4.80;0.83;;;;;;;;;;5068667;28;20072;-59
2022/07/28 08:28:56;;;;;;;1.20;0.50;;;;;;;;;;5069068;28;20051;-60
2022/07/28 08:31:22;;;;;;;2.93;0.80;;;;;;;;;;5068649;28;20045;-60
2022/07/28 08:33:48;;;;;;;3.23;0.70;;;;;;;;;;5068411;28;20094;-60
2022/07/28 08:36:15;;;;;;;2.07;0.60;;;;;;;;;;5068843;28;20049;-59
2022/07/28 08:38:41;;;;;;;4.23;0.90;;;;;;;;;;5068304;28;20079;-60
2022/07/28 08:41:08;;;;;;;4.87;0.83;;;;;;;;;;5068529;28;20592;-60
2022/07/28 08:43:34;;;;;;;2.07;0.67;;;;;;;;;;5067696;28;20076;-59
2022/07/28 08:46:01;;;;;;;4.17;0.90;;;;;;;;;;5068395;28;20051;-60
2022/07/28 08:48:30;;;;;;;2.17;0.60;;;;;;;;;;5068247;28;20162;-59
2022/07/28 08:51:00;;;;;;;2.73;0.70;;;;;;;;;;5067092;28;20033;-60
2022/07/28 08:53:26;;;;;;;2.60;0.97;;;;;;;;;;5057468;28;20048;-60
2022/07/28 08:55:53;;;;;;;3.33;0.80;;;;;;;;;;5055708;28;20087;-59
2022/07/28 08:58:19;;;;;;;2.67;0.80;;;;;;;;;;5056224;28;20450;-60
2022/07/28 09:00:46;;;;;;;2.23;0.80;;;;;;;;;;5056735;28;20041;-60
2022/07/28 09:03:12;;;;;;;3.53;0.70;;;;;;;;;;5055420;28;20048;-60
2022/07/28 09:05:40;;;;;;;4.93;1.10;;;;;;;;;;5057989;28;20043;-60
2022/07/28 09:08:07;;;;;;;3.40;0.60;;;;;;;;;;5057198;28;20052;-61
2022/07/28 09:10:33;;;;;;;3.27;0.90;;;;;;;;;;5055725;28;20048;-60
2022/07/28 09:12:59;;;;;;;2.60;0.70;;;;;;;;;;5055217;28;20409;-60
2022/07/28 09:15:25;;;;;;;3.17;0.80;;;;;;;;;;5056824;28;20037;-60
2022/07/28 09:17:51;;;;;;;1.63;0.65;;;;;;;;;;5056056;28;20113;-58
2022/07/28 09:20:17;;;;;;;1.38;0.52;;;;;;;;;;5058067;28;20127;-57
2022/07/28 09:22:59;;;;;;;4.03;0.80;;;;;;;;;;5057324;28;20041;-58
2022/07/28 09:25:26;;;;;;;3.83;0.80;;;;;;;;;;5061282;28;20055;-57
2022/07/28 09:27:53;;;;;;;2.70;0.68;;;;;;;;;;5060084;28;20053;-57
2022/07/28 09:30:32;;;;;;;2.50;0.70;;;;;;;;;;5060361;28;20049;-57
2022/07/28 09:33:17;;;;;;;3.70;0.77;;;;;;;;;;5059774;28;20400;-57
2022/07/28 09:35:44;;;;;;;3.78;1.17;;;;;;;;;;5060304;28;20040;-57
2022/07/28 09:38:10;;;;;;;3.67;0.90;;;;;;;;;;5059658;28;20138;-57
2022/07/28 09:40:36;;;;;;;3.45;0.90;;;;;;;;;;5051513;28;20105;-57
2022/07/28 09:43:02;;;;;;;4.05;0.85;;;;;;;;;;5051100;28;20041;-58
2022/07/28 09:45:28;;;;;;;2.30;0.63;;;;;;;;;;5051273;28;20103;-58
2022/07/28 09:48:11;;;;;;;4.35;1.13;;;;;;;;;;5051154;28;20137;-58
2022/07/28 09:50:38;;;;;;;3.80;0.82;;;;;;;;;;5058620;28;20532;-58
2022/07/28 09:53:21;;;;;;;2.45;0.73;;;;;;;;;;5059858;28;20053;-57
2022/07/28 09:55:57;;;;;;;3.58;1.00;;;;;;;;;;5062634;28;20509;-58
2022/07/28 09:58:24;;;;;;;3.05;0.80;;;;;;;;;;5070663;28;20127;-57
2022/07/28 10:00:50;;;;;;;2.08;1.02;;;;;;;;;;5061304;28;20076;-58
2022/07/28 10:03:25;;;;;;;2.53;0.70;;;;;;;;;;5057700;28;20032;-57
2022/07/28 10:05:51;;;;;;;4.32;1.02;;;;;;;;;;5065680;28;20144;-58
2022/07/28 10:08:18;;;;;;;2.00;0.80;;;;;;;;;;5060838;28;20143;-57
2022/07/28 10:10:57;;;;;;;3.03;0.57;;;;;;;;;;5058899;28;20045;-58
2022/07/28 10:13:23;;;;;;;2.90;0.70;;;;;;;;;;5050470;28;20045;-57
2022/07/28 10:16:10;;;;;;;3.22;1.10;;;;;;;;;;5050051;28;20394;-57
2022/07/28 10:18:36;;;;;;;2.97;0.98;;;;;;;;;;5060500;28;20051;-57
2022/07/28 10:21:04;;;;;;;2.08;0.90;;;;;;;;;;5059040;28;20051;-59
2022/07/28 10:23:30;;;;;;;5.80;0.82;;;;;;;;;;5061749;28;20131;-59
2022/07/28 10:25:56;;;;;;;2.17;1.38;;;;;;;;;;5059417;28;20494;-59
2022/07/28 10:28:23;;;;;;;3.40;0.70;;;;;;;;;;5062556;28;20093;-59
2022/07/28 10:30:50;;;;;;;2.05;0.70;;;;;;;;;;5070170;28;20052;-59
2022/07/28 10:33:18;;;;;;;3.78;0.98;;;;;;;;;;5070811;28;20106;-59
2022/07/28 10:35:46;;;;;;;2.83;0.93;;;;;;;;;;5064105;28;20076;-59
2022/07/28 10:38:13;;;;;;;1.30;1.00;;;;;;;;;;5061183;28;20051;-59
2022/07/28 10:40:40;;;;;;;1.95;0.77;;;;;;;;;;5052627;28;20045;-59
2022/07/28 10:43:07;;;;;;;2.03;0.80;;;;;;;;;;5050553;28;20051;-60
2022/07/28 10:45:34;;;;;;;2.35;0.80;;;;;;;;;;5050402;28;20079;-59
2022/07/28 10:48:02;;;;;;;1.92;0.70;;;;;;;;;;5061394;28;20045;-59
2022/07/28 10:50:28;;;;;;;1.75;0.77;;;;;;;;;;5058446;28;20054;-59
2022/07/28 10:52:55;;;;;;;1.00;0.52;;;;;;;;;;5069475;28;20044;-59
2022/07/28 10:55:37;;;;;;;4.63;0.80;;;;;;;;;;5070226;28;20048;-59
2022/07/28 10:58:28;;;;;;;2.33;0.45;;;;;;;;;;5069653;28;20410;-58
2022/07/28 11:00:54;;;;;;;3.15;0.77;;;;;;;;;;5069561;28;20128;-59
2022/07/28 11:03:39;;;;;;;1.55;0.52;;;;;;;;;;5069934;28;20044;-59
2022/07/28 11:06:23;;;;;;;1.48;0.60;;;;;;;;;;5070288;28;20524;-59
2022/07/28 11:08:51;;;;;;;2.22;0.65;;;;;;;;;;5069902;28;20041;-59
2022/07/28 11:11:37;;;;;;;1.67;0.70;;;;;;;;;;5069553;28;20049;-59
2022/07/28 11:14:22;;;;;;;3.75;0.82;;;;;;;;;;5069596;28;20133;-59
2022/07/28 11:17:09;;;;;;;5.03;1.25;;;;;;;;;;5069698;28;20068;-59
2022/07/28 11:19:38;;;;;;;2.33;0.95;;;;;;;;;;5068790;28;20568;-60
2022/07/28 11:25:01;;;;;;;2.45;0.75;;;;;;;;;;5067558;28;20052;-59
2022/07/28 11:27:44;;;;;;;1.83;0.70;;;;;;;;;;5058138;28;20049;-59
2022/07/28 11:30:32;;;;;;;3.47;0.95;;;;;;;;;;5066903;28;20079;-59
2022/07/28 11:33:01;;;;;;;4.82;1.15;;;;;;;;;;5069081;28;20090;-59
2022/07/28 11:35:27;;;;;;;4.15;0.88;;;;;;;;;;5069024;28;20139;-59
2022/07/28 11:38:02;;;;;;;3.60;0.80;;;;;;;;;;5068804;28;20490;-59
2022/07/28 11:40:29;;;;;;;2.33;0.82;;;;;;;;;;5068373;28;20048;-60
2022/07/28 11:43:15;;;;;;;2.47;0.52;;;;;;;;;;5068335;28;20044;-60
2022/07/28 11:45:41;;;;;;;2.78;0.57;;;;;;;;;;5058381;28;20468;-60
2022/07/28 11:48:20;;;;;;;2.88;0.63;;;;;;;;;;5056507;28;20214;-60
2022/07/28 11:51:02;;;;;;;2.10;0.82;;;;;;;;;;5058872;28;20499;-60
2022/07/28 11:53:37;;;;;;;1.45;0.70;;;;;;;;;;5058629;28;20044;-60
2022/07/28 11:56:03;;;;;;;1.95;0.80;;;;;;;;;;5058078;28;20450;-60
2022/07/28 11:58:29;;;;;;;3.45;0.80;;;;;;;;;;5056705;28;20572;-61
2022/07/28 12:01:18;;;;;;;3.33;0.80;;;;;;;;;;5056459;28;20519;-60
2022/07/28 12:03:45;;;;;;;2.13;0.80;;;;;;;;;;5058498;28;20528;-60
2022/07/28 12:06:12;;;;;;;1.50;0.60;;;;;;;;;;5056734;28;20051;-60
2022/07/28 12:08:50;;;;;;;3.03;0.98;;;;;;;;;;5053200;28;20125;-59
2022/07/28 12:11:16;;;;;;;5.30;0.93;;;;;;;;;;5048182;28;20075;-59
2022/07/28 12:13:43;;;;;;;2.88;0.73;;;;;;;;;;5047490;28;20052;-60
2022/07/28 12:16:09;;;;;;;2.35;0.90;;;;;;;;;;5057280;28;20041;-60
2022/07/28 12:18:35;;;;;;;4.03;0.88;;;;;;;;;;5057296;28;20449;-60
2022/07/28 12:21:01;;;;;;;3.38;1.00;;;;;;;;;;5063870;28;20815;-59
2022/07/28 12:23:32;;;;;;;2.97;0.70;;;;;;;;;;5061084;28;20052;-60
2022/07/28 12:26:00;;;;;;;2.42;0.80;;;;;;;;;;5068517;28;20454;-60
2022/07/28 12:28:28;;;;;;;2.95;1.00;;;;;;;;;;5067401;28;20044;-59
2022/07/28 12:30:54;;;;;;;6.03;0.88;;;;;;;;;;5068166;28;20079;-60
2022/07/28 12:33:24;;;;;;;2.35;0.60;;;;;;;;;;5059801;28;20044;-60
2022/07/28 12:35:55;;;;;;;3.17;0.75;;;;;;;;;;5066890;28;20040;-60
2022/07/28 12:38:22;;;;;;;3.92;0.80;;;;;;;;;;5067796;28;20519;-60
2022/07/28 12:40:48;;;;;;;2.38;1.33;;;;;;;;;;5063188;28;20041;-59
2022/07/28 12:43:22;;;;;;;2.60;0.70;;;;;;;;;;5051443;28;20123;-60
2022/07/28 12:45:48;;;;;;;3.55;0.90;;;;;;;;;;5063329;28;20499;-60
2022/07/28 12:48:17;;;;;;;4.68;1.02;;;;;;;;;;5052705;28;20411;-60
2022/07/28 12:50:44;;;;;;;6.35;1.05;;;;;;;;;;5047648;28;20053;-60
2022/07/28 12:53:11;;;;;;;4.35;1.00;;;;;;;;;;5045714;28;20501;-59
2022/07/28 12:55:37;;;;;;;1.60;0.80;;;;;;;;;;5045675;28;20473;-60
2022/07/28 12:58:04;;;;;;;6.47;1.13;;;;;;;;;;5048998;28;20045;-60
2022/07/28 13:00:32;;;;;;;3.13;0.80;;;;;;;;;;5050620;28;20489;-60
2022/07/28 13:02:59;;;;;;;5.40;0.82;;;;;;;;;;5051086;28;20044;-60
2022/07/28 13:05:29;;;;;;;8.23;1.50;;;;;;;;;;5049933;28;20479;-60
2022/07/28 13:08:02;;;;;;;3.50;0.80;;;;;;;;;;5051812;28;20136;-60
2022/07/28 13:10:29;;;;;;;3.08;0.80;;;;;;;;;;5051825;28;20094;-60
2022/07/28 13:13:02;;;;;;;2.90;0.80;;;;;;;;;;5050949;28;20091;-60
2022/07/28 13:15:28;;;;;;;1.70;0.60;;;;;;;;;;5051088;28;20037;-60
2022/07/28 13:17:55;;;;;;;5.00;1.10;;;;;;;;;;5051107;28;20060;-60
2022/07/28 13:20:23;;;;;;;2.50;0.80;;;;;;;;;;5051055;28;20049;-60
2022/07/28 13:22:49;;;;;;;2.10;0.75;;;;;;;;;;5051154;28;20454;-60
2022/07/28 13:25:15;;;;;;;6.00;0.95;;;;;;;;;;5050302;28;20041;-60
2022/07/28 13:27:42;;;;;;;4.53;0.88;;;;;;;;;;5051078;28;20364;-59
2022/07/28 13:30:08;;;;;;;2.80;1.10;;;;;;;;;;5050619;28;20041;-59
2022/07/28 13:32:34;;;;;;;3.35;0.82;;;;;;;;;;5050370;28;20092;-60
2022/07/28 13:35:01;;;;;;;2.10;0.73;;;;;;;;;;5051010;28;20438;-60
2022/07/28 13:37:27;;;;;;;2.25;0.90;;;;;;;;;;5050815;28;20103;-60
2022/07/28 13:39:53;;;;;;;3.88;0.90;;;;;;;;;;5050659;28;20045;-60
2022/07/28 13:42:19;;;;;;;1.88;0.77;;;;;;;;;;5050246;28;20076;-59
2022/07/28 13:44:46;;;;;;;2.10;1.10;;;;;;;;;;5050721;28;20064;-60
2022/07/28 13:47:12;;;;;;;5.13;1.17;;;;;;;;;;5050689;28;20068;-60
2022/07/28 13:49:38;;;;;;;3.78;1.00;;;;;;;;;;5050958;28;20415;-60
2022/07/28 13:52:05;;;;;;;1.85;0.68;;;;;;;;;;5049998;28;20052;-60
2022/07/28 13:54:31;;;;;;;1.90;0.70;;;;;;;;;;5050402;28;20056;-60
2022/07/28 13:57:10;;;;;;;1.85;0.70;;;;;;;;;;5050198;28;20488;-60
2022/07/28 13:59:36;;;;;;;3.40;0.75;;;;;;;;;;5050369;28;20446;-60
2022/07/28 14:02:02;;;;;;;4.13;0.95;;;;;;;;;;5049904;28;20045;-60
2022/07/28 14:04:28;;;;;;;3.40;1.02;;;;;;;;;;5050346;28;20041;-60
2022/07/28 14:06:54;;;;;;;3.58;1.13;;;;;;;;;;5050609;28;20083;-60
2022/07/28 14:09:20;;;;;;;1.95;0.60;;;;;;;;;;5049591;28;20078;-60
2022/07/28 14:11:46;;;;;;;2.80;1.02;;;;;;;;;;5050021;28;20715;-60
2022/07/28 14:14:12;;;;;;;4.22;0.90;;;;;;;;;;5050063;28;21201;-60
2022/07/28 14:16:39;;;;;;;3.35;0.80;;;;;;;;;;5049613;28;20061;-60
2022/07/28 14:19:05;;;;;;;2.90;0.63;;;;;;;;;;5050187;28;20087;-60
2022/07/28 14:21:31;;;;;;;2.88;0.93;;;;;;;;;;5049628;28;20426;-60
2022/07/28 14:23:57;;;;;;;2.38;0.90;;;;;;;;;;5050096;28;20578;-60
2022/07/28 14:26:24;;;;;;;3.35;0.75;;;;;;;;;;5050039;28;20151;-60
2022/07/28 14:28:50;;;;;;;3.00;0.85;;;;;;;;;;5049588;28;20053;-60
2022/07/28 14:31:16;;;;;;;3.88;0.80;;;;;;;;;;5049221;28;20509;-60
2022/07/28 14:33:42;;;;;;;3.42;0.63;;;;;;;;;;5049825;28;20044;-59
2022/07/28 14:36:08;;;;;;;1.45;0.70;;;;;;;;;;5049557;28;20063;-59
2022/07/28 14:38:34;;;;;;;3.65;0.77;;;;;;;;;;5049334;28;20491;-59
2022/07/28 14:41:00;;;;;;;3.38;0.65;;;;;;;;;;5049284;28;20045;-60
2022/07/28 14:43:26;;;;;;;3.28;0.95;;;;;;;;;;5049320;28;20224;-59
2022/07/28 14:45:53;;;;;;;2.78;0.85;;;;;;;;;;5049560;28;20139;-60
2022/07/28 14:48:18;;;;;;;3.38;1.00;;;;;;;;;;5049545;28;20072;-59
2022/07/28 14:50:45;;;;;;;2.63;0.75;;;;;;;;;;5049527;28;20044;-59